createdAt,value
2023-06-19T00:03:11.682Z,17.80
2023-06-19T00:08:18.710Z,17.40
2023-06-19T00:13:25.755Z,18.10
2023-06-19T00:18:41.725Z,18.30
2023-06-19T00:23:49.055Z,17.40
2023-06-19T00:28:57.447Z,17.20
2023-06-19T00:34:04.465Z,17.50
2023-06-19T00:39:12.062Z,17.80
2023-06-19T00:44:20.562Z,17.00
2023-06-19T00:49:27.855Z,17.20
2023-06-19T00:54:35.252Z,16.80
2023-06-19T00:59:42.409Z,18.50
2023-06-19T01:04:49.481Z,18.00
2023-06-19T01:10:01.323Z,19.40
2023-06-19T01:15:10.445Z,19.20
2023-06-19T01:20:18.904Z,18.30
2023-06-19T01:25:26.470Z,19.20
2023-06-19T01:30:34.103Z,18.40
2023-06-19T01:35:44.263Z,18.00
2023-06-19T01:40:52.630Z,19.40
2023-06-19T01:45:59.965Z,18.30
2023-06-19T01:51:08.474Z,19.40
2023-06-19T01:56:15.449Z,18.80
2023-06-19T02:01:22.446Z,18.60
2023-06-19T02:06:31.817Z,17.60
2023-06-19T02:11:38.826Z,17.90
2023-06-19T02:16:48.386Z,19.20
2023-06-19T02:21:55.565Z,20.80
2023-06-19T02:27:03.666Z,23.00
2023-06-19T02:32:11.963Z,19.10
2023-06-19T02:37:19.057Z,23.60
2023-06-19T02:42:25.975Z,20.00
2023-06-19T02:47:33.048Z,19.10
2023-06-19T02:52:40.080Z,20.40
2023-06-19T02:57:47.297Z,20.10
2023-06-19T03:02:54.841Z,21.70
2023-06-19T03:08:02.057Z,20.60
2023-06-19T03:13:09.120Z,21.40
2023-06-19T03:18:16.425Z,20.80
2023-06-19T03:23:23.468Z,23.30
2023-06-19T03:28:31.535Z,22.70
2023-06-19T03:33:39.204Z,22.60
2023-06-19T03:38:47.440Z,23.70
2023-06-19T03:43:55.038Z,24.60
2023-06-19T03:49:02.047Z,24.50
2023-06-19T03:54:09.108Z,28.80
2023-06-19T03:59:16.650Z,32.90
2023-06-19T04:04:23.931Z,34.80
2023-06-19T04:09:31.055Z,30.20
2023-06-19T04:14:38.057Z,27.20
2023-06-19T04:19:45.237Z,25.80
2023-06-19T04:24:52.237Z,26.30
2023-06-19T04:29:59.380Z,24.00
2023-06-19T04:35:07.383Z,22.50
2023-06-19T04:40:15.009Z,21.90
2023-06-19T04:45:22.240Z,22.60
2023-06-19T04:50:29.154Z,20.40
2023-06-19T04:55:36.173Z,21.60
2023-06-19T05:00:43.576Z,21.60
2023-06-19T05:05:50.665Z,22.40
2023-06-19T05:10:58.925Z,20.20
2023-06-19T05:16:06.165Z,20.30
2023-06-19T05:21:13.963Z,18.80
2023-06-19T05:26:21.745Z,20.30
2023-06-19T05:31:28.908Z,21.00
2023-06-19T05:36:35.836Z,17.10
2023-06-19T05:41:43.409Z,18.10
2023-06-19T05:46:50.744Z,18.10
2023-06-19T05:52:00.440Z,18.30
2023-06-19T05:57:09.586Z,17.40
2023-06-19T06:02:16.520Z,17.00
2023-06-19T06:07:23.634Z,16.20
2023-06-19T06:12:30.524Z,13.60
2023-06-19T06:17:37.521Z,12.90
2023-06-19T06:22:45.132Z,13.90
2023-06-19T06:27:52.642Z,11.30
2023-06-19T06:32:59.667Z,12.30
2023-06-19T06:38:06.638Z,11.70
2023-06-19T06:43:13.461Z,10.40
2023-06-19T06:48:20.545Z,11.00
2023-06-19T06:53:29.161Z,11.00
2023-06-19T06:58:36.057Z,10.60
2023-06-19T07:03:43.239Z,9.80
2023-06-19T07:08:50.394Z,10.30
2023-06-19T07:13:57.347Z,12.10
2023-06-19T07:19:04.342Z,9.50
2023-06-19T07:24:11.854Z,9.40
2023-06-19T07:29:18.974Z,8.60
2023-06-19T07:34:26.426Z,8.30
2023-06-19T07:39:33.441Z,8.00
2023-06-19T07:44:40.420Z,8.40
2023-06-19T07:49:47.748Z,9.30
2023-06-19T07:54:59.018Z,8.90
2023-06-19T08:00:12.506Z,8.00
2023-06-19T08:05:20.221Z,7.90
2023-06-19T08:10:27.719Z,7.70
2023-06-19T08:15:35.476Z,7.70
2023-06-19T08:20:42.529Z,7.70
2023-06-19T08:25:49.547Z,7.10
2023-06-19T08:30:56.447Z,7.50
2023-06-19T08:36:03.876Z,7.30
2023-06-19T08:41:10.958Z,7.70
2023-06-19T08:46:20.586Z,8.30
2023-06-19T08:51:32.611Z,7.60
2023-06-19T08:56:43.170Z,7.00
2023-06-19T09:01:53.794Z,7.90
2023-06-19T09:07:11.682Z,8.30
2023-06-19T09:12:25.340Z,6.80
2023-06-19T09:17:38.747Z,6.80
2023-06-19T09:22:58.159Z,5.50
2023-06-19T09:28:05.365Z,5.40
2023-06-19T09:33:12.471Z,6.90
2023-06-19T09:38:22.593Z,5.80
2023-06-19T09:43:35.742Z,4.70
2023-06-19T09:48:47.582Z,5.30
2023-06-19T09:53:54.682Z,6.80
2023-06-19T09:59:04.046Z,6.10
2023-06-19T10:04:12.508Z,6.50
2023-06-19T10:09:20.408Z,5.80
2023-06-19T10:14:27.598Z,5.50
2023-06-19T10:19:37.703Z,5.30
2023-06-19T10:24:52.993Z,5.00
2023-06-19T10:30:06.392Z,5.50
2023-06-19T10:35:25.229Z,6.80
2023-06-19T10:40:32.354Z,5.00
2023-06-19T10:45:39.337Z,4.90
2023-06-19T10:50:46.780Z,6.20
2023-06-19T10:55:58.488Z,4.70
2023-06-19T11:01:05.897Z,5.80
2023-06-19T11:06:13.267Z,5.10
2023-06-19T11:11:21.536Z,5.20
2023-06-19T11:16:29.752Z,4.60
2023-06-19T11:26:51.940Z,6.10
2023-06-19T11:32:11.918Z,4.40
2023-06-19T11:37:22.172Z,5.80
2023-06-19T11:42:31.174Z,4.20
2023-06-19T11:47:38.801Z,4.90
2023-06-19T11:52:47.006Z,5.60
2023-06-19T12:03:00.078Z,4.90
2023-06-19T12:08:08.074Z,4.60
2023-06-19T12:13:15.095Z,4.30
2023-06-19T12:18:22.302Z,5.70
2023-06-19T12:23:29.730Z,4.30
2023-06-19T12:28:36.927Z,4.30
2023-06-19T12:33:44.948Z,4.30
2023-06-19T12:38:51.967Z,5.30
2023-06-19T12:43:59.268Z,5.00
2023-06-19T12:49:06.268Z,4.80
2023-06-19T12:54:13.132Z,4.70
2023-06-19T12:59:20.633Z,4.60
2023-06-19T13:04:27.634Z,4.20
2023-06-19T13:09:34.694Z,5.20
2023-06-19T13:14:41.624Z,4.90
2023-06-19T13:19:48.528Z,5.10
2023-06-19T13:24:56.776Z,4.80
2023-06-19T13:30:04.769Z,5.10
2023-06-19T13:35:12.155Z,4.80
2023-06-19T13:40:19.138Z,4.50
2023-06-19T13:45:26.330Z,5.90
2023-06-19T13:50:34.134Z,4.90
2023-06-19T13:55:41.088Z,6.40
2023-06-19T14:00:48.737Z,5.70
2023-06-19T14:05:56.434Z,5.50
2023-06-19T14:11:03.481Z,4.10
2023-06-19T14:16:10.912Z,4.70
2023-06-19T14:21:17.899Z,5.80
2023-06-19T14:26:24.916Z,4.30
2023-06-19T14:31:31.918Z,5.40
2023-06-19T14:36:40.817Z,5.60
2023-06-19T14:41:47.917Z,4.50
2023-06-19T14:46:54.938Z,4.90
2023-06-19T14:52:02.104Z,6.10
2023-06-19T14:57:10.239Z,4.90
2023-06-19T15:02:17.274Z,4.90
2023-06-19T15:07:25.067Z,5.20
2023-06-19T15:12:33.342Z,4.80
2023-06-19T15:17:41.092Z,5.10
2023-06-19T15:22:48.187Z,6.30
2023-06-19T15:27:55.281Z,5.70
2023-06-19T15:38:07.989Z,5.10
2023-06-19T15:43:15.042Z,5.50
2023-06-19T15:48:22.150Z,4.90
2023-06-19T15:53:29.236Z,5.80
2023-06-19T15:58:36.326Z,4.50
2023-06-19T16:03:44.097Z,5.20
2023-06-19T16:08:53.081Z,5.20
2023-06-19T16:14:00.704Z,5.90
2023-06-19T16:19:07.664Z,5.10
2023-06-19T16:24:14.603Z,5.50
2023-06-19T16:29:21.774Z,4.80
2023-06-19T16:34:31.109Z,5.10
2023-06-19T16:39:42.490Z,5.70
2023-06-19T16:44:49.485Z,5.50
2023-06-19T16:49:56.937Z,6.00
2023-06-19T16:55:04.030Z,5.70
2023-06-19T17:00:13.062Z,5.80
2023-06-19T17:05:22.291Z,6.20
2023-06-19T17:10:30.503Z,7.30
2023-06-19T17:20:43.383Z,7.00
2023-06-19T17:25:50.550Z,7.70
2023-06-19T17:30:57.493Z,6.20
2023-06-19T17:36:05.099Z,6.10
2023-06-19T17:41:12.092Z,6.60
2023-06-19T17:46:19.036Z,5.70
2023-06-19T17:51:26.433Z,5.90
2023-06-19T17:56:33.458Z,7.70
2023-06-19T18:01:40.793Z,6.70
2023-06-19T18:06:47.777Z,7.60
2023-06-19T18:11:54.779Z,7.60
2023-06-19T18:17:04.865Z,7.20
2023-06-19T18:22:11.841Z,7.40
2023-06-19T18:27:19.645Z,9.00
2023-06-19T18:32:26.705Z,8.20
2023-06-19T18:37:33.876Z,7.90
2023-06-19T18:42:42.247Z,10.00
2023-06-19T18:47:49.414Z,9.00
2023-06-19T18:52:57.238Z,8.00
2023-06-19T18:58:04.256Z,8.00
2023-06-19T19:03:11.480Z,7.80
2023-06-19T19:08:18.621Z,8.60
2023-06-19T19:13:25.800Z,9.00
2023-06-19T19:18:32.799Z,8.20
2023-06-19T19:23:39.664Z,9.00
2023-06-19T19:28:46.635Z,9.50
2023-06-19T19:33:54.066Z,9.90
2023-06-19T19:39:01.114Z,10.00
2023-06-19T19:44:08.254Z,9.50
2023-06-19T19:49:15.250Z,9.60
2023-06-19T19:54:30.057Z,9.90
2023-06-19T19:59:46.057Z,10.10
2023-06-19T20:04:53.625Z,10.60
2023-06-19T20:10:01.712Z,11.20
2023-06-19T20:15:11.290Z,11.10
2023-06-19T20:20:18.289Z,14.30
2023-06-19T20:25:25.228Z,13.00
2023-06-19T20:30:32.963Z,15.20
2023-06-19T20:35:39.898Z,13.80
2023-06-19T20:40:46.767Z,13.00
2023-06-19T20:45:53.841Z,13.10
2023-06-19T20:51:00.738Z,12.00
2023-06-19T20:56:07.894Z,13.70
2023-06-19T21:01:14.818Z,11.90
2023-06-19T21:06:23.652Z,12.50
2023-06-19T21:11:30.597Z,13.00
2023-06-19T21:16:37.856Z,14.10
2023-06-19T21:21:44.792Z,13.70
2023-06-19T21:26:53.307Z,15.90
2023-06-19T21:32:00.263Z,15.40
2023-06-19T21:37:07.856Z,14.70
2023-06-19T21:42:14.925Z,13.80
2023-06-19T21:47:21.932Z,15.70
2023-06-19T21:52:28.853Z,13.40
2023-06-19T21:57:53.779Z,14.00
2023-06-19T22:08:12.159Z,13.50
2023-06-19T22:13:19.087Z,14.20
2023-06-19T22:18:26.127Z,13.60
2023-06-19T22:23:33.568Z,16.00
2023-06-19T22:28:40.557Z,18.00
2023-06-19T22:33:51.543Z,13.40
2023-06-19T22:38:58.728Z,13.90
2023-06-19T22:44:05.964Z,15.60
2023-06-19T22:49:14.890Z,14.70
2023-06-19T22:54:21.891Z,16.20
2023-06-19T22:59:29.172Z,16.30
2023-06-19T23:04:36.938Z,15.00
2023-06-19T23:09:44.231Z,14.30
2023-06-19T23:14:51.212Z,14.00
2023-06-19T23:19:59.562Z,15.00
2023-06-19T23:25:07.474Z,14.60
2023-06-19T23:30:15.018Z,14.30
2023-06-19T23:35:24.351Z,15.20
2023-06-19T23:40:31.566Z,15.60
2023-06-19T23:45:38.477Z,17.10
2023-06-19T23:50:45.343Z,14.80
2023-06-19T23:55:52.475Z,15.90
